Terminal Aerodrome Forecast
Issued by NWS

Home | Current Version | Previous Version | Text Only | Print | Product List | Glossary On
Versions: 1 2 3 4 5 6 7 8 9 10 11 12 13 14 15 16 17 18 19 20 21 22 23 24 25 26 27 28 29 30 31 32
000
FTUS43 KDDC 300301 AAA
TAFGCK
TAF AMD
KGCK 300301Z 3003/3024 16020G30KT P6SM SCT050
     FM300330 18015G25KT P6SM TSRA BKN020CB
     FM300500 18015KT P6SM VCSH BKN050
     FM300700 19010KT P6SM BKN070
     FM301800 22011KT P6SM SKC=

USA.gov is the U.S. government's official web portal to all federal, state and local government web resources and services.